createdAt,value
2023-02-12T00:01:33.108Z,76.23
2023-02-12T00:05:00.153Z,76.50
2023-02-12T00:08:27.187Z,76.45
2023-02-12T00:11:54.054Z,76.62
2023-02-12T00:15:21.635Z,76.58
2023-02-12T00:18:51.367Z,76.66
2023-02-12T00:22:19.407Z,76.88
2023-02-12T00:25:47.668Z,76.69
2023-02-12T00:29:14.555Z,76.56
2023-02-12T00:32:41.210Z,76.53
2023-02-12T00:36:10.711Z,76.34
2023-02-12T00:39:41.844Z,76.46
2023-02-12T00:43:09.026Z,76.41
2023-02-12T00:46:35.963Z,76.30
2023-02-12T00:50:03.017Z,76.00
2023-02-12T00:53:30.603Z,76.07
2023-02-12T00:56:58.226Z,76.02
2023-02-12T01:00:30.590Z,76.08
2023-02-12T01:03:58.513Z,76.12
2023-02-12T01:07:27.416Z,76.30
2023-02-12T01:11:00.809Z,76.43
2023-02-12T01:14:28.631Z,76.53
2023-02-12T01:17:56.650Z,76.50
2023-02-12T01:21:26.866Z,76.50
2023-02-12T01:24:56.806Z,76.45
2023-02-12T01:28:23.453Z,76.49
2023-02-12T01:31:50.467Z,76.58
2023-02-12T01:35:17.601Z,76.67
2023-02-12T01:38:45.750Z,76.56
2023-02-12T01:42:19.158Z,76.37
2023-02-12T01:45:55.003Z,76.23
2023-02-12T01:49:25.699Z,76.15
2023-02-12T01:52:57.653Z,76.08
2023-02-12T01:56:26.548Z,75.84
2023-02-12T01:59:57.994Z,76.02
2023-02-12T02:03:26.734Z,76.00
2023-02-12T02:06:58.546Z,76.08
2023-02-12T02:10:28.200Z,76.02
2023-02-12T02:14:14.179Z,75.98
2023-02-12T02:17:54.097Z,76.08
2023-02-12T02:22:02.324Z,76.08
2023-02-12T02:25:52.017Z,76.16
2023-02-12T02:29:47.840Z,76.16
2023-02-12T02:33:29.578Z,76.29
2023-02-12T02:37:04.838Z,76.13
2023-02-12T02:40:41.697Z,76.03
2023-02-12T02:44:17.630Z,76.04
2023-02-12T02:47:49.690Z,75.97
2023-02-12T02:51:23.856Z,75.97
2023-02-12T02:54:55.900Z,75.92
2023-02-12T02:58:30.647Z,75.96
2023-02-12T03:02:08.593Z,75.87
2023-02-12T03:05:39.738Z,75.82
2023-02-12T03:09:14.000Z,75.79
2023-02-12T03:12:50.972Z,75.55
2023-02-12T03:16:24.790Z,75.50
2023-02-12T03:19:57.602Z,75.60
2023-02-12T03:23:29.364Z,75.71
2023-02-12T03:27:04.532Z,75.60
2023-02-12T03:30:41.971Z,75.34
2023-02-12T03:34:15.054Z,75.63
2023-02-12T03:37:47.916Z,75.72
2023-02-12T03:41:22.529Z,75.95
2023-02-12T03:44:59.071Z,75.85
2023-02-12T03:48:36.120Z,76.02
2023-02-12T03:52:06.054Z,75.91
2023-02-12T03:55:38.210Z,75.60
2023-02-12T03:59:06.898Z,75.70
2023-02-12T04:02:34.214Z,75.71
2023-02-12T04:06:03.870Z,75.43
2023-02-12T04:09:32.769Z,75.60
2023-02-12T04:13:13.156Z,75.73
2023-02-12T04:16:48.175Z,75.53
2023-02-12T04:20:24.880Z,75.57
2023-02-12T04:24:03.592Z,75.44
2023-02-12T04:27:44.800Z,75.42
2023-02-12T04:31:22.036Z,75.47
2023-02-12T04:35:01.707Z,75.42
2023-02-12T04:38:35.199Z,75.55
2023-02-12T04:42:01.760Z,75.37
2023-02-12T04:45:35.079Z,75.62
2023-02-12T04:49:06.867Z,75.60
2023-02-12T04:52:36.572Z,75.71
2023-02-12T04:56:05.320Z,75.66
2023-02-12T04:59:40.239Z,75.56
2023-02-12T05:03:10.537Z,75.43
2023-02-12T05:06:40.411Z,75.66
2023-02-12T05:10:11.031Z,75.66
2023-02-12T05:13:40.360Z,75.55
2023-02-12T05:17:08.886Z,75.60
2023-02-12T05:20:37.069Z,75.35
2023-02-12T05:24:04.779Z,75.25
2023-02-12T05:27:32.951Z,75.06
2023-02-12T05:31:03.621Z,75.16
2023-02-12T05:34:33.014Z,75.03
2023-02-12T05:38:00.426Z,75.24
2023-02-12T05:41:28.849Z,75.31
2023-02-12T05:44:58.867Z,75.25
2023-02-12T05:48:27.132Z,75.36
2023-02-12T05:51:55.583Z,75.20
2023-02-12T05:55:23.120Z,75.05
2023-02-12T05:58:56.524Z,74.73
2023-02-12T06:02:24.178Z,74.81
2023-02-12T06:06:00.159Z,75.07
2023-02-12T06:09:30.650Z,75.16
2023-02-12T06:12:59.379Z,75.19
2023-02-12T06:16:28.833Z,75.36
2023-02-12T06:19:56.785Z,75.40
2023-02-12T06:23:24.735Z,75.52
2023-02-12T06:26:52.882Z,75.55
2023-02-12T06:30:20.953Z,75.63
2023-02-12T06:33:49.087Z,75.50
2023-02-12T06:37:16.087Z,75.21
2023-02-12T06:40:43.449Z,75.16
2023-02-12T06:44:12.792Z,75.20
2023-02-12T06:47:39.379Z,75.25
2023-02-12T06:51:12.335Z,75.41
2023-02-12T06:54:39.362Z,75.28
2023-02-12T06:58:07.391Z,75.01
2023-02-12T07:01:34.221Z,75.07
2023-02-12T07:05:01.794Z,75.00
2023-02-12T07:08:28.569Z,75.16
2023-02-12T07:11:56.791Z,75.30
2023-02-12T07:15:28.596Z,75.27
2023-02-12T07:18:55.832Z,75.41
2023-02-12T07:22:23.138Z,75.47
2023-02-12T07:26:00.295Z,75.48
2023-02-12T07:29:27.745Z,75.70
2023-02-12T07:32:54.646Z,75.81
2023-02-12T07:36:25.615Z,75.91
2023-02-12T07:39:52.663Z,75.94
2023-02-12T07:43:19.413Z,76.10
2023-02-12T07:46:48.679Z,76.24
2023-02-12T07:50:18.409Z,76.29
2023-02-12T07:53:46.370Z,76.24
2023-02-12T07:57:13.857Z,76.25
2023-02-12T08:00:40.604Z,76.33
2023-02-12T08:04:11.459Z,76.37
2023-02-12T08:07:38.759Z,76.44
2023-02-12T08:11:07.000Z,76.49
2023-02-12T08:14:34.005Z,76.64
2023-02-12T08:18:01.861Z,76.62
2023-02-12T08:21:30.393Z,76.64
2023-02-12T08:24:58.860Z,76.69
2023-02-12T08:28:26.050Z,76.72
2023-02-12T08:31:57.279Z,76.70
2023-02-12T08:35:25.198Z,76.86
2023-02-12T08:38:52.382Z,76.88
2023-02-12T08:42:25.910Z,76.93
2023-02-12T08:45:52.490Z,77.07
2023-02-12T08:49:22.060Z,77.10
2023-02-12T08:52:49.266Z,77.45
2023-02-12T08:56:20.153Z,77.51
2023-02-12T08:59:47.384Z,77.53
2023-02-12T09:03:14.674Z,77.43
2023-02-12T09:06:41.701Z,77.37
2023-02-12T09:10:12.469Z,77.63
2023-02-12T09:13:40.273Z,77.51
2023-02-12T09:17:07.283Z,77.46
2023-02-12T09:20:38.701Z,77.43
2023-02-12T09:24:06.285Z,77.18
2023-02-12T09:27:33.761Z,77.10
2023-02-12T09:31:06.256Z,76.96
2023-02-12T09:34:35.583Z,77.06
2023-02-12T09:38:02.527Z,77.09
2023-02-12T09:42:11.720Z,76.97
2023-02-12T09:45:45.245Z,76.90
2023-02-12T09:49:19.020Z,77.12
2023-02-12T09:52:48.693Z,77.48
2023-02-12T09:56:22.438Z,77.47
2023-02-12T09:59:54.152Z,77.31
2023-02-12T10:03:21.400Z,77.54
2023-02-12T10:06:57.679Z,77.37
2023-02-12T10:10:44.026Z,77.08
2023-02-12T10:14:46.279Z,77.06
2023-02-12T10:18:37.512Z,77.08
2023-02-12T10:22:15.276Z,77.26
2023-02-12T10:25:54.057Z,77.15
2023-02-12T10:29:24.811Z,76.86
2023-02-12T10:32:56.280Z,76.87
2023-02-12T10:36:36.085Z,77.13
2023-02-12T10:40:06.539Z,77.08
2023-02-12T10:43:34.046Z,76.88
2023-02-12T10:47:02.056Z,76.94
2023-02-12T10:50:43.677Z,77.25
2023-02-12T10:54:35.952Z,77.42
2023-02-12T10:58:19.287Z,77.20
2023-02-12T11:01:51.266Z,77.48
2023-02-12T11:05:27.331Z,77.23
2023-02-12T11:08:54.915Z,77.51
2023-02-12T11:12:31.708Z,77.31
2023-02-12T11:16:02.305Z,77.48
2023-02-12T11:19:36.555Z,77.40
2023-02-12T11:23:08.559Z,77.15
2023-02-12T11:26:36.677Z,77.26
2023-02-12T11:30:19.764Z,77.03
2023-02-12T11:33:53.726Z,77.03
2023-02-12T11:37:21.862Z,77.13
2023-02-12T11:40:49.831Z,76.99
2023-02-12T11:44:25.347Z,77.05
2023-02-12T11:47:53.836Z,77.26
2023-02-12T11:51:31.578Z,77.29
2023-02-12T11:55:04.476Z,77.35
2023-02-12T11:58:37.169Z,77.45
2023-02-12T12:02:19.905Z,77.36
2023-02-12T12:05:52.426Z,77.38
2023-02-12T12:09:27.426Z,77.47
2023-02-12T12:12:58.924Z,77.41
2023-02-12T12:16:58.128Z,77.64
2023-02-12T12:20:31.299Z,77.75
2023-02-12T12:24:05.764Z,77.79
2023-02-12T12:27:59.476Z,77.66
2023-02-12T12:31:31.722Z,77.52
2023-02-12T12:34:58.070Z,77.70
2023-02-12T12:38:40.940Z,77.34
2023-02-12T12:42:45.538Z,77.71
2023-02-12T12:46:33.467Z,77.41
2023-02-12T12:50:23.128Z,77.56
2023-02-12T12:54:03.631Z,77.96
2023-02-12T12:57:45.173Z,77.59
2023-02-12T13:01:45.765Z,77.77
2023-02-12T13:05:48.636Z,77.96
2023-02-12T13:09:38.590Z,77.73
2023-02-12T13:13:17.928Z,78.17
2023-02-12T13:16:51.457Z,78.33
2023-02-12T13:20:28.464Z,78.27
2023-02-12T13:24:01.391Z,78.10
2023-02-12T13:27:34.538Z,78.37
2023-02-12T13:31:01.386Z,78.40
2023-02-12T13:34:32.547Z,78.44
2023-02-12T13:38:01.805Z,78.51
2023-02-12T13:41:30.226Z,78.59
2023-02-12T13:45:07.982Z,78.73
2023-02-12T13:48:55.014Z,78.59
2023-02-12T13:52:30.664Z,78.50
2023-02-12T13:56:21.012Z,78.57
2023-02-12T13:59:50.642Z,78.62
2023-02-12T14:03:17.953Z,78.39
2023-02-12T14:06:55.992Z,78.13
2023-02-12T14:10:31.293Z,78.19
2023-02-12T14:14:00.146Z,78.18
2023-02-12T14:18:07.634Z,78.24
2023-02-12T14:21:42.515Z,78.39
2023-02-12T14:25:34.059Z,78.27
2023-02-12T14:29:04.813Z,78.64
2023-02-12T14:33:02.134Z,78.37
2023-02-12T14:36:44.199Z,78.60
2023-02-12T14:40:47.089Z,78.48
2023-02-12T14:44:56.514Z,78.51
2023-02-12T14:48:48.984Z,78.79
2023-02-12T14:52:24.976Z,78.54
2023-02-12T14:55:52.703Z,78.64
2023-02-12T14:59:22.660Z,78.91
2023-02-12T15:02:55.625Z,78.63
2023-02-12T15:06:28.628Z,78.64
2023-02-12T15:10:00.799Z,78.64
2023-02-12T15:13:34.321Z,78.57
2023-02-12T15:17:04.986Z,78.59
2023-02-12T15:20:36.843Z,78.33
2023-02-12T15:24:08.861Z,78.58
2023-02-12T15:27:35.687Z,78.57
2023-02-12T15:31:04.869Z,78.81
2023-02-12T15:34:38.247Z,78.79
2023-02-12T15:38:03.836Z,78.83
2023-02-12T15:41:42.128Z,78.93
2023-02-12T15:45:25.412Z,79.20
2023-02-12T15:48:51.917Z,79.12
2023-02-12T15:52:24.997Z,79.17
2023-02-12T15:55:57.583Z,78.95
2023-02-12T15:59:30.341Z,79.00
2023-02-12T16:03:07.941Z,79.03
2023-02-12T16:06:39.269Z,79.12
2023-02-12T16:10:08.484Z,79.12
2023-02-12T16:13:38.699Z,78.90
2023-02-12T16:17:19.408Z,78.84
2023-02-12T16:20:47.059Z,78.69
2023-02-12T16:24:27.544Z,78.76
2023-02-12T16:28:00.182Z,78.68
2023-02-12T16:31:29.413Z,78.71
2023-02-12T16:35:05.769Z,78.38
2023-02-12T16:38:48.321Z,78.56
2023-02-12T16:42:20.384Z,78.81
2023-02-12T16:45:48.077Z,78.74
2023-02-12T16:49:18.761Z,78.99
2023-02-12T16:52:46.010Z,78.82
2023-02-12T16:56:21.408Z,79.10
2023-02-12T16:59:48.514Z,79.08
2023-02-12T17:03:20.838Z,79.09
2023-02-12T17:06:47.848Z,79.15
2023-02-12T17:10:17.819Z,79.00
2023-02-12T17:13:44.882Z,79.01
2023-02-12T17:17:12.460Z,79.12
2023-02-12T17:20:39.847Z,79.19
2023-02-12T17:24:09.934Z,79.03
2023-02-12T17:27:38.180Z,79.30
2023-02-12T17:31:06.609Z,79.39
2023-02-12T17:34:46.597Z,79.47
2023-02-12T17:38:15.379Z,79.33
2023-02-12T17:41:42.331Z,79.27
2023-02-12T17:45:10.786Z,79.35
2023-02-12T17:48:37.259Z,79.29
2023-02-12T17:52:07.199Z,79.25
2023-02-12T17:55:40.289Z,79.26
2023-02-12T17:59:07.792Z,79.24
2023-02-12T18:02:34.742Z,79.14
2023-02-12T18:06:01.585Z,79.30
2023-02-12T18:09:28.145Z,79.30
2023-02-12T18:12:55.401Z,79.26
2023-02-12T18:16:23.282Z,79.13
2023-02-12T18:19:52.028Z,79.44
2023-02-12T18:23:19.845Z,79.36
2023-02-12T18:26:47.112Z,79.43
2023-02-12T18:30:15.658Z,79.54
2023-02-12T18:33:44.166Z,79.57
2023-02-12T18:37:13.733Z,79.57
2023-02-12T18:40:44.526Z,79.50
2023-02-12T18:44:18.878Z,79.75
2023-02-12T18:47:47.694Z,79.72
2023-02-12T18:51:18.131Z,79.60
2023-02-12T18:54:48.064Z,79.70
2023-02-12T18:58:17.075Z,79.56
2023-02-12T19:01:43.941Z,79.80
2023-02-12T19:05:12.914Z,79.77
2023-02-12T19:08:42.162Z,79.79
2023-02-12T19:12:11.030Z,79.79
2023-02-12T19:15:42.909Z,79.74
2023-02-12T19:19:12.640Z,79.63
2023-02-12T19:22:40.836Z,79.85
2023-02-12T19:26:10.360Z,79.55
2023-02-12T19:29:36.989Z,79.77
2023-02-12T19:33:04.309Z,79.46
2023-02-12T19:36:35.480Z,79.50
2023-02-12T19:40:03.200Z,79.58
2023-02-12T19:43:30.184Z,79.47
2023-02-12T19:46:59.800Z,79.58
2023-02-12T19:50:26.416Z,79.75
2023-02-12T19:53:53.653Z,79.67
2023-02-12T19:57:24.011Z,79.68
2023-02-12T20:00:57.098Z,79.84
2023-02-12T20:04:25.677Z,80.05
2023-02-12T20:07:58.074Z,79.98
2023-02-12T20:11:29.092Z,80.02
2023-02-12T20:15:01.238Z,80.06
2023-02-12T20:18:28.560Z,80.08
2023-02-12T20:21:57.796Z,79.92
2023-02-12T20:25:25.993Z,79.93
2023-02-12T20:28:53.612Z,79.96
2023-02-12T20:32:22.382Z,79.90
2023-02-12T20:35:59.710Z,79.99
2023-02-12T20:39:28.568Z,79.94
2023-02-12T20:42:55.805Z,79.90
2023-02-12T20:46:30.606Z,79.90
2023-02-12T20:49:59.327Z,79.92
2023-02-12T20:53:35.380Z,79.96
2023-02-12T20:57:07.193Z,80.11
2023-02-12T21:00:35.508Z,79.95
2023-02-12T21:04:06.264Z,79.95
2023-02-12T21:07:36.372Z,80.10
2023-02-12T21:11:05.652Z,79.91
2023-02-12T21:14:34.432Z,79.86
2023-02-12T21:18:04.092Z,79.94
2023-02-12T21:21:33.857Z,79.87
2023-02-12T21:25:01.752Z,79.93
2023-02-12T21:28:29.745Z,79.75
2023-02-12T21:32:01.883Z,79.72
2023-02-12T21:35:29.361Z,79.91
2023-02-12T21:38:57.665Z,79.82
2023-02-12T21:42:30.253Z,80.01
2023-02-12T21:45:59.087Z,79.96
2023-02-12T21:49:28.548Z,80.07
2023-02-12T21:52:56.910Z,80.07
2023-02-12T21:56:29.596Z,80.22
2023-02-12T21:59:59.341Z,80.19
2023-02-12T22:03:31.201Z,80.14
2023-02-12T22:07:03.771Z,80.22
2023-02-12T22:10:34.994Z,79.96
2023-02-12T22:14:04.667Z,80.00
2023-02-12T22:17:35.557Z,80.09
2023-02-12T22:21:05.687Z,80.10
2023-02-12T22:24:33.353Z,80.04
2023-02-12T22:28:02.256Z,80.04
2023-02-12T22:31:32.900Z,79.93
2023-02-12T22:34:59.687Z,79.98
2023-02-12T22:38:26.947Z,79.99
2023-02-12T22:41:54.702Z,79.97
2023-02-12T22:45:21.825Z,79.79
2023-02-12T22:48:49.914Z,79.75
2023-02-12T22:52:16.821Z,79.73
2023-02-12T22:55:45.487Z,79.82
2023-02-12T22:59:14.061Z,79.73
2023-02-12T23:02:42.361Z,79.72
2023-02-12T23:06:12.162Z,79.72
2023-02-12T23:09:41.754Z,79.81
2023-02-12T23:13:21.285Z,79.88
2023-02-12T23:16:55.891Z,80.08
2023-02-12T23:20:23.998Z,80.00
2023-02-12T23:23:50.968Z,79.87
2023-02-12T23:27:23.892Z,80.06
2023-02-12T23:30:54.377Z,79.96
2023-02-12T23:34:21.588Z,79.84
2023-02-12T23:37:48.263Z,80.05
2023-02-12T23:41:15.096Z,79.94
2023-02-12T23:44:42.105Z,79.98
2023-02-12T23:48:09.035Z,80.04
2023-02-12T23:51:36.944Z,80.04
2023-02-12T23:55:16.621Z,79.74
2023-02-12T23:58:43.735Z,79.76
